• Join FlightAware (Why Join?)
  • Login
  • US Flag 
02:03AM EDT


 

Airport Tracker/Info


-or-


 

Live Flight TrackerFlight Track Log ✈ UPS2948 ✈ 28-Oct-2013 ✈ KSDF - KOAK

Flight Track Log - Related Links

Times and Time Zones

All times are in EDT time to prevent confusion due to time zone crossing. See the UPS2948 flight status page for this flight to view local times or setup timezone preferences in your user account.

Time Position Orientation Groundspeed Altitude Reporting Facility
EDT Latitude Longitude Course Direction KTS MPH feet Rate Location/Type
04:24PM 38.1630 -85.7410 238° Southwest 175 201 400  Level FlightAware
04:24PM 38.1310 -85.7340 170° South 189 217 1,900 1,800 Climbing FlightAware
04:25PM 38.1050 -85.7360 183° South 221 254 2,400 1,920 Climbing FlightAware
04:25PM 38.0730 -85.7570 207° Southwest 233 268 4,000 2,460 Climbing FlightAware
04:26PM 38.0720 -85.8000 268° West 249 287 5,300 2,700 Climbing FlightAware
04:26PM 38.0760 -85.8500 276° West 258 297 6,900 3,000 Climbing FlightAware
04:27PM 38.0760 -85.8990 270° West 268 308 8,400 2,580 Climbing FlightAware
04:28PM 38.0720 -85.9640 266° West 280 322 10,100 1,620 Climbing FlightAware
04:29PM 38.0640 -86.0920 266° West 355 409 11,500 1,260 Climbing FlightAware
04:29PM 38.0590 -86.1740 266° West 380 437 12,400 2,400 Climbing FlightAware
04:30PM 38.0500 -86.3000 265° West 387 445 15,200 2,760 Climbing FlightAware
04:31PM 38.0440 -86.3730 264° West 393 452 16,700 2,580 Climbing FlightAware
04:32PM 38.0370 -86.4660 265° West 400 460 18,500 2,640 Climbing FlightAware
04:32PM 38.0310 -86.5370 264° West 404 465 19,800 2,400 Climbing FlightAware
04:33PM 38.0220 -86.6530 264° West 412 474 21,700 2,280 Climbing FlightAware
04:34PM 38.0110 -86.7990 265° West 419 482 24,000 2,220 Climbing FlightAware
04:34PM 38.0040 -86.8750 263° West 423 487 25,100 2,100 Climbing FlightAware
04:35PM 37.9950 -86.9880 264° West 430 495 26,500 1,920 Climbing FlightAware
04:36PM 37.9870 -87.0850 264° West 431 496 27,700 2,220 Climbing FlightAware
04:36PM 37.9800 -87.1720 264° West 417 480 29,300 1,320 Climbing FlightAware
04:38PM 37.9660 -87.3330 264° West 396 456 30,000 300 Climbing FlightAware
04:39PM 37.9530 -87.4840 264° West 397 457 30,000  Level FlightAware
04:39PM 37.9450 -87.5770 264° West 401 461 30,000  Level FlightAware
04:40PM 37.9380 -87.6550 264° West 402 463 30,000  Level FlightAware
04:41PM 37.9330 -87.7760 267° West 398 458 30,000  Level FlightAware
04:41PM 37.9520 -87.8750 284° West 396 456 30,000  Level FlightAware
04:42PM 37.9740 -87.9740 286° West 398 458 30,000  Level FlightAware
04:43PM 37.9900 -88.0470 286° West 398 458 30,000  Level FlightAware
04:43PM 38.0120 -88.1500 285° West 397 457 30,000  Level FlightAware
04:44PM 38.0280 -88.2220 286° West 397 457 30,000  Level FlightAware
04:45PM 38.0460 -88.3080 285° West 397 457 30,000  Level FlightAware
04:45PM 38.0610 -88.3790 285° West 396 456 30,000  Level FlightAware
04:46PM 38.0790 -88.4610 286° West 396 456 30,000  Level FlightAware
04:46PM 38.0960 -88.5430 285° West 396 456 30,000  Level FlightAware
04:47PM 38.1180 -88.6460 285° West 397 457 30,000  Level FlightAware
04:48PM 38.1490 -88.7940 285° West 397 457 30,000  Level FlightAware
04:49PM 38.1710 -88.9020 285° West 397 457 30,000  Level FlightAware
04:50PM 38.1860 -88.9740 285° West 397 457 30,000  Level FlightAware
04:50PM 38.2040 -89.0560 286° West 398 458 30,000  Level FlightAware
04:51PM 38.2180 -89.1280 284° West 398 458 30,000  Level FlightAware
04:51PM 38.2340 -89.2020 285° West 397 457 30,000  Level FlightAware
04:52PM 38.2530 -89.2960 284° West 396 456 30,000  Level FlightAware
04:52PM 38.2680 -89.3700 284° West 396 456 30,000  Level FlightAware
04:53PM 38.2860 -89.4580 285° West 397 457 30,000  Level FlightAware
04:54PM 38.3010 -89.5320 285° West 397 457 30,000  Level FlightAware
04:55PM 38.3270 -89.6580 285° West 397 457 30,000  Level FlightAware
04:55PM 38.3450 -89.7490 284° West 398 458 30,000  Level FlightAware
04:56PM 38.3600 -89.8210 285° West 398 458 30,000  Level FlightAware
04:56PM 38.3780 -89.9130 284° West 399 459 30,000  Level FlightAware
04:57PM 38.4030 -90.0410 284° West 399 459 30,000  Level FlightAware
04:58PM 38.4150 -90.0980 285° West 399 459 30,000  Level FlightAware
04:58PM 38.4320 -90.1890 283° West 399 459 30,000  Level FlightAware
04:59PM 38.4470 -90.2630 285° West 399 459 30,000  Level FlightAware
05:00PM 38.4610 -90.3380 283° West 399 459 30,000  Level FlightAware
05:00PM 38.4790 -90.4270 285° West 399 459 30,000  Level FlightAware
05:01PM 38.4940 -90.5040 284° West 399 459 30,000  Level FlightAware
05:01PM 38.5090 -90.5850 283° West 399 459 30,000  Level FlightAware
05:02PM 38.5260 -90.6710 284° West 400 460 30,000  Level FlightAware
05:03PM 38.5410 -90.7500 284° West 400 460 30,000  Level FlightAware
05:03PM 38.5660 -90.8810 284° West 400 460 30,000  Level FlightAware
05:04PM 38.5850 -90.9860 283° West 402 463 30,000  Level FlightAware
05:05PM 38.5960 -91.0400 285° West 402 463 30,000  Level FlightAware
05:06PM 38.6140 -91.1450 282° West 402 463 30,000  Level FlightAware
05:06PM 38.6270 -91.2160 283° West 402 463 30,000  Level FlightAware
05:07PM 38.6530 -91.3580 283° West 402 463 30,000  Level FlightAware
05:08PM 38.6610 -91.4050 282° West 402 463 30,000  Level FlightAware
05:08PM 38.6740 -91.4760 283° West 402 463 30,000  Level FlightAware
05:09PM 38.6870 -91.5470 283° West 402 463 30,000  Level FlightAware
05:09PM 38.6960 -91.5950 284° West 402 463 30,000  Level FlightAware
05:10PM 38.7180 -91.7190 283° West 402 463 30,000  Level FlightAware
05:11PM 38.7310 -91.7900 283° West 402 463 30,000  Level FlightAware
05:12PM 38.7470 -91.8810 283° West 402 463 30,000  Level FlightAware
05:13PM 38.7690 -92.0010 283° West 402 463 30,000  Level FlightAware
05:14PM 38.8480 -92.3980 284° West 407 468 30,000  Level FlightAware
05:15PM 38.8680 -92.4920 285° West 407 468 30,000  Level FlightAware
05:16PM 38.8870 -92.5850 285° West 407 468 30,000  Level FlightAware
05:16PM 38.9070 -92.6880 284° West 407 468 30,000  Level FlightAware
05:17PM 38.9350 -92.8270 285° West 406 467 30,000  Level FlightAware
05:18PM 38.9640 -92.9680 285° West 405 466 30,000  Level FlightAware
05:19PM 38.9780 -93.0410 284° West 405 466 30,000  Level FlightAware
05:20PM 39.0040 -93.1710 284° West 405 466 30,000  Level FlightAware
05:20PM 39.0190 -93.2470 284° West 405 466 30,000  Level FlightAware
05:21PM 39.0380 -93.3420 284° West 405 466 30,000  Level FlightAware
05:22PM 39.0570 -93.4400 284° West 405 466 30,000  Level FlightAware
05:22PM 39.0730 -93.5250 284° West 405 466 30,000  Level FlightAware
05:23PM 39.0900 -93.6120 284° West 404 465 30,000  Level FlightAware
05:24PM 39.1150 -93.7440 284° West 402 463 30,000  Level FlightAware
05:25PM 39.1430 -93.8910 284° West 402 463 30,000  Level FlightAware
05:26PM 39.1580 -93.9660 284° West 402 463 30,000  Level FlightAware
05:26PM 39.1770 -94.0670 284° West 402 463 30,000  Level FlightAware
05:27PM 39.2020 -94.2030 283° West 404 465 30,000  Level FlightAware
05:28PM 39.2190 -94.2940 284° West 404 465 30,000  Level FlightAware
05:28PM 39.2322 -94.3653 283° West 403 464 30,000  Level FlightAware ADS-B
05:29PM 39.2425 -94.4210 283° West 402 463 30,000  Level FlightAware ADS-B
05:30PM 39.2690 -94.5630 284° West 401 461 30,000  Level FlightAware
05:31PM 39.2928 -94.6864 284° West 400 460 30,000  Level Kansas City Center
05:32PM 39.3186 -94.8442 282° West 403 464 30,000  Level Kansas City Center
05:33PM 39.3436 -94.9778 284° West 402 463 30,000  Level Kansas City Center
05:34PM 39.3714 -95.1347 283° West 400 460 30,000  Level Kansas City Center
05:35PM 39.3986 -95.2867 283° West 403 464 30,000  Level Kansas City Center
05:36PM 39.4236 -95.4236 283° West 396 456 30,000  Level Kansas City Center
05:37PM 39.4503 -95.5731 283° West 399 459 30,000  Level Kansas City Center
05:38PM 39.4722 -95.7056 282° West 396 456 30,000  Level Kansas City Center
05:39PM 39.4950 -95.8383 283° West 396 456 30,000  Level Kansas City Center
05:40PM 39.5217 -95.9950 282° West 400 460 30,000  Level Kansas City Center
05:41PM 39.5444 -96.1286 283° West 398 458 30,000  Level Kansas City Center
05:42PM 39.5714 -96.2850 283° West 398 458 30,000  Level Kansas City Center
05:43PM 39.5933 -96.4200 282° West 399 459 30,000  Level Kansas City Center
05:44PM 39.6192 -96.5775 282° West 399 459 30,000  Level Kansas City Center
05:45PM 39.6414 -96.7108 282° West 397 457 30,000  Level Kansas City Center
05:46PM 39.6664 -96.8619 282° West 395 455 30,000  Level Kansas City Center
05:47PM 39.6889 -97.0003 282° West 393 452 30,000  Level Kansas City Center
05:48PM 39.7108 -97.1397 282° West 394 453 30,000  Level Kansas City Center
05:49PM 39.7358 -97.2989 282° West 398 458 30,000  Level Kansas City Center
05:50PM 39.7594 -97.4400 282° West 398 458 30,000  Level Kansas City Center
05:51PM 39.7803 -97.5800 281° West 396 456 30,000  Level Kansas City Center
05:53PM 39.8019 -97.7211 281° West 397 457 30,000  Level Kansas City Center
05:54PM 39.8233 -97.8614 281° West 396 456 30,000  Level Kansas City Center
05:55PM 39.8500 -98.0317 282° West 399 459 30,000  Level Kansas City Center
05:56PM 39.8650 -98.1475 280° West 399 459 30,000  Level Denver Center
05:56PM 39.8733 -98.2033 281° West 398 458 30,000  Level Minneapolis Center
05:57PM 39.8989 -98.3753 281° West 402 463 30,000  Level Minneapolis Center
05:58PM 39.9206 -98.5203 281° West 405 466 30,000  Level Minneapolis Center
05:59PM 39.9400 -98.6622 280° West 400 460 30,000  Level Minneapolis Center
06:00PM 39.9619 -98.8067 281° West 403 464 30,000  Level Minneapolis Center
06:01PM 39.9822 -98.9508 280° West 403 464 30,000  Level Minneapolis Center
06:02PM 40.0019 -99.0928 280° West 400 460 30,000  Level Minneapolis Center
06:03PM 40.0139 -99.1794 280° West 401 461 30,000  Level Denver Center
06:04PM 40.0461 -99.4083 280° West 401 461 30,000  Level Minneapolis Center
06:05PM 40.0533 -99.4653 279° West 401 461 30,000  Level Denver Center
06:06PM 40.0725 -99.6089 280° West 401 461 30,000  Level Denver Center
06:07PM 40.0925 -99.7519 280° West 401 461 30,000  Level Denver Center
06:08PM 40.1161 -99.9222 280° West 404 465 30,000  Level Denver Center
06:09PM 40.1347 -100.0592 280° West 400 460 30,000  Level Denver Center
06:10PM 40.1564 -100.2222 280° West 406 467 30,000  Level Denver Center
06:11PM 40.1742 -100.3628 279° West 408 470 30,000  Level Denver Center
06:12PM 40.1925 -100.5031 280° West 408 470 30,000  Level Denver Center
06:13PM 40.2050 -100.6694 276° West 410 472 30,000  Level Denver Center
06:14PM 40.2072 -100.8128 271° West 410 472 30,000  Level Denver Center
06:15PM 40.2089 -100.9814 271° West 412 474 30,000  Level Denver Center
06:16PM 40.2100 -101.1258 271° West 413 475 30,000  Level Denver Center
06:17PM 40.2114 -101.2953 271° West 417 480 30,000  Level Denver Center
06:18PM 40.2117 -101.4397 270° West 415 478 30,000  Level Denver Center
06:19PM 40.2131 -101.5833 271° West 414 476 30,000  Level Denver Center
06:20PM 40.2119 -101.7506 270° West 411 473 30,000  Level Denver Center
06:26PM 40.2120 -102.6270 270° West 419 482 30,000  Level FlightAware
06:27PM 40.2100 -102.7350 269° West 419 482 30,000  Level FlightAware
06:28PM 40.2110 -102.8570 271° West 420 483 30,000  Level FlightAware
06:28PM 40.2100 -102.9250 271° West 419 482 30,000  Level Salt Lake Center
06:29PM 40.2094 -102.9989 269° West 422 486 30,000  Level Denver Center
06:30PM 40.2081 -103.1525 269° West 425 489 30,000 300 Level Denver Center
06:31PM 40.2069 -103.3089 270° West 431 496 30,700 960 Climbing Denver Center
06:32PM 40.2058 -103.4650 270° West 431 496 32,000 600 Climbing Denver Center
06:33PM 40.2042 -103.6153 269° West 418 481 32,000  Level Denver Center
06:34PM 40.2008 -103.7944 269° West 418 481 32,000  Level Denver Center
06:35PM 40.1994 -103.9442 269° West 414 476 32,000  Level Denver Center
06:36PM 40.1967 -104.0917 269° West 410 472 32,000  Level Denver Center
06:37PM 40.1933 -104.2400 268° West 411 473 32,000  Level Denver Center
06:38PM 40.1908 -104.3881 269° West 410 472 32,000  Level Denver Center
06:39PM 40.1878 -104.5686 269° West 416 479 32,000  Level Denver Center
06:40PM 40.1850 -104.7186 269° West 416 479 32,000  Level Denver Center
06:41PM 40.1808 -104.8714 268° West 422 486 32,000  Level Denver Center
06:42PM 40.1778 -105.0225 269° West 421 484 32,000 60 Level Denver Center
06:43PM 40.1742 -105.1761 268° West 424 488 32,200 960 Climbing Denver Center
06:44PM 40.1697 -105.3239 268° West 411 473 34,000 840 Climbing Denver Center
06:45PM 40.1656 -105.4831 268° West 370 426 34,000  Level Denver Center
06:46PM 40.1614 -105.6200 268° West 381 438 34,000  Level Denver Center
06:47PM 40.1572 -105.7592 268° West 386 444 34,000  Level Denver Center
06:48PM 40.1503 -105.8956 266° West 379 436 34,000  Level Denver Center
06:49PM 40.1475 -106.0339 269° West 381 438 34,000  Level Denver Center
06:50PM 40.1417 -106.1717 267° West 382 440 34,000  Level Denver Center
06:51PM 40.1358 -106.3364 267° West 381 438 34,000  Level Denver Center
06:52PM 40.1317 -106.4731 268° West 378 435 34,000  Level Denver Center
06:53PM 40.1267 -106.6122 267° West 384 442 34,000  Level Denver Center
06:54PM 40.1228 -106.7431 268° West 379 436 34,000  Level Denver Center
06:55PM 40.1147 -106.8958 266° West 377 434 34,000  Level Denver Center
06:56PM 40.1108 -107.0258 268° West 376 433 34,000  Level Denver Center
06:57PM 40.1036 -107.1806 267° West 382 440 34,000  Level Denver Center
06:58PM 40.0983 -107.3136 267° West 385 443 34,000  Level Denver Center
06:59PM 40.0911 -107.4692 267° West 385 443 34,000  Level Denver Center
07:00PM 40.0847 -107.6017 266° West 382 440 34,000  Level Denver Center
07:02PM 40.0786 -107.7556 267° West 382 440 34,000  Level Denver Center
07:03PM 40.0722 -107.8822 266° West 370 426 34,000  Level Denver Center
07:04PM 40.0672 -108.0331 268° West 372 428 34,000  Level Denver Center
07:05PM 40.0633 -108.1608 268° West 371 427 34,000  Level Denver Center
07:06PM 40.0594 -108.2917 268° West 377 434 34,000  Level Denver Center
07:07PM 40.0544 -108.4472 268° West 385 443 34,000  Level Denver Center
07:08PM 40.0519 -108.5819 269° West 389 448 34,000  Level Denver Center
07:09PM 40.0469 -108.7383 268° West 390 449 34,000  Level Denver Center
07:10PM 40.0419 -108.8728 267° West 389 448 34,000  Level Denver Center
07:11PM 40.0369 -109.0297 268° West 390 449 34,000  Level Denver Center
07:12PM 40.0328 -109.1622 268° West 386 444 34,000  Level Denver Center
07:13PM 40.0217 -109.3158 265° West 383 441 34,000  Level Denver Center
07:14PM 39.9889 -109.4828 256° West 373 429 34,000  Level Salt Lake Center
07:15PM 39.9642 -109.6078 256° West 372 428 34,000  Level Salt Lake Center
07:16PM 39.9436 -109.7111 255° West 372 428 34,000  Level Denver Center
07:17PM 39.9142 -109.8550 255° West 369 425 34,000  Level Denver Center
07:18PM 39.8894 -109.9786 255° West 370 426 34,000  Level Denver Center
07:19PM 39.8594 -110.1228 255° West 369 425 34,000  Level Denver Center
07:20PM 39.8294 -110.2703 255° West 376 433 34,000  Level Salt Lake Center
07:21PM 39.7983 -110.4172 255° West 379 436 34,000  Level Salt Lake Center
07:22PM 39.7725 -110.5431 255° West 377 434 34,000  Level Salt Lake Center
07:23PM 39.7431 -110.6853 255° West 368 423 34,000  Level Salt Lake Center
07:24PM 39.7172 -110.8058 254° West 364 419 34,000  Level Salt Lake Center
07:25PM 39.6925 -110.9250 255° West 359 413 34,000  Level Salt Lake Center
07:26PM 39.6642 -111.0647 255° West 359 413 34,000  Level Salt Lake Center
07:27PM 39.6372 -111.1839 254° West 359 413 34,000  Level Salt Lake Center
07:28PM 39.6108 -111.3067 254° West 356 410 34,000  Level Salt Lake Center
07:29PM 39.5844 -111.4314 255° West 358 412 34,000  Level Salt Lake Center
07:30PM 39.5572 -111.5556 254° West 359 413 34,000  Level Salt Lake Center
07:32PM 39.5250 -111.7053 254° West 361 415 34,000  Level Salt Lake Center
07:33PM 39.4967 -111.8303 254° West 361 415 34,000  Level Salt Lake Center
07:34PM 39.4686 -111.9550 254° West 363 418 34,000  Level Salt Lake Center
07:35PM 39.4417 -112.0789 254° West 359 413 34,000  Level Salt Lake Center
07:36PM 39.4147 -112.2042 254° West 361 415 34,000  Level Salt Lake Center
07:37PM 39.3858 -112.3314 254° West 369 425 34,000  Level Salt Lake Center
07:38PM 39.3581 -112.4589 254° West 370 426 34,000  Level Salt Lake Center
07:39PM 39.3286 -112.5800 253° West 361 415 34,000  Level Salt Lake Center
07:40PM 39.2975 -112.7103 253° West 361 415 34,000  Level Salt Lake Center
07:41PM 39.2686 -112.8383 254° West 369 425 34,000  Level Salt Lake Center
07:42PM 39.2328 -112.9922 253° West 373 429 34,000  Level Salt Lake Center
07:43PM 39.2014 -113.1219 253° West 377 434 34,000  Level Salt Lake Center
07:44PM 39.1697 -113.2556 253° West 386 444 34,000  Level Salt Lake Center
07:45PM 39.1381 -113.3911 253° West 394 453 34,000  Level Salt Lake Center
07:46PM 39.1056 -113.5303 253° West 404 465 34,000  Level Salt Lake Center
07:47PM 39.0714 -113.6719 253° West 413 475 34,000  Level Salt Lake Center
07:48PM 39.0386 -113.8150 254° West 418 481 34,000  Level Salt Lake Center
07:49PM 38.9956 -113.9881 252° West 424 488 34,000  Level Salt Lake Center
07:50PM 38.9603 -114.1333 253° West 427 491 34,000  Level Salt Lake Center
07:51PM 38.9247 -114.2775 252° West 426 490 34,000  Level Salt Lake Center
07:52PM 38.8897 -114.4189 252° West 421 484 34,000  Level Salt Lake Center
07:53PM 38.8561 -114.5586 253° West 416 479 34,000  Level Salt Lake Center
07:54PM 38.8219 -114.6989 253° West 415 478 34,000  Level Salt Lake Center
07:55PM 38.7864 -114.8414 252° West 416 479 34,000  Level Salt Lake Center
07:56PM 38.7433 -115.0117 252° West 420 483 34,000  Level Salt Lake Center
07:57PM 38.7067 -115.1564 252° West 424 488 34,000  Level Salt Lake Center
07:58PM 38.6697 -115.3000 252° West 425 489 34,000  Level Salt Lake Center
07:59PM 38.6322 -115.4408 251° West 427 491 34,000  Level Salt Lake Center
08:00PM 38.5964 -115.5856 252° West 427 491 34,000  Level Salt Lake Center
08:06PM 38.3790 -116.4140 252° West 431 496 34,000  Level FlightAware
08:06PM 38.3594 -116.4833 252° West 434 499 34,000  Level Salt Lake Center
08:07PM 38.3200 -116.6297 251° West 436 502 34,000  Level Salt Lake Center
08:08PM 38.2806 -116.7758 251° West 438 504 34,000  Level Salt Lake Center
08:10PM 38.2403 -116.9231 251° West 440 506 34,000  Level Salt Lake Center
08:11PM 38.1917 -117.1006 251° West 442 509 34,000  Level Salt Lake Center
08:12PM 38.1556 -117.2292 250° West 442 509 34,000  Level Salt Lake Center
08:13PM 38.1144 -117.3781 251° West 437 503 34,000  Level Salt Lake Center
08:14PM 38.0733 -117.5272 251° West 445 512 34,000  Level Salt Lake Center
08:15PM 38.0231 -117.7061 250° West 448 516 34,000  Level Oakland Center
08:16PM 38.0022 -117.8622 260° West 452 520 34,000  Level Oakland Center
08:17PM 37.9961 -118.0214 267° West 451 519 34,000  Level Oakland Center
08:18PM 37.9900 -118.1803 267° West 452 520 34,000  Level Oakland Center
08:19PM 37.9836 -118.3397 267° West 451 519 34,000  Level Oakland Center
08:20PM 37.9767 -118.4992 267° West 452 520 34,000  Level Oakland Center
08:21PM 37.9706 -118.6581 267° West 452 520 34,000  Level Oakland Center
08:22PM 37.9639 -118.8172 267° West 452 520 34,000  Level Oakland Center
08:23PM 37.9575 -118.9722 267° West 444 511 34,000 -540 Level Oakland Center
08:24PM 37.9500 -119.1311 267° West 451 519 33,000 -1,020 Descending Oakland Center
08:25PM 37.9400 -119.3211 266° West 452 520 32,000 -540 Descending Oakland Center
08:26PM 37.9328 -119.4789 267° West 450 518 32,000  Level Oakland Center
08:27PM 37.9244 -119.6356 266° West 446 513 32,000  Level Oakland Center
08:28PM 37.9147 -119.7925 266° West 446 513 32,000 -60 Level Oakland Center
08:29PM 37.9058 -119.9497 266° West 448 516 31,900 -960 Descending Oakland Center
08:30PM 37.8978 -120.1075 266° West 447 514 30,100 -2,040 Descending Oakland Center
08:31PM 37.8889 -120.2697 266° West 456 525 27,800 -2,160 Descending Oakland Center
08:32PM 37.8794 -120.4328 266° West 463 533 25,700 -2,100 Descending Oakland Center
08:33PM 37.8689 -120.5967 265° West 465 535 23,600 -2,460 Descending Oakland Center
08:34PM 37.8594 -120.7578 266° West 460 529 20,800 -1,920 Descending Oakland Center
08:35PM 37.8333 -120.9167 258° West 453 521 20,000 -1,560 Descending Northern Cal TRACON
08:36PM 37.8000 -121.0667 254° West 430 495 17,900 -2,580 Descending Northern Cal TRACON
08:37PM 37.7667 -121.2000 252° West 433 498 14,900 -3,120 Descending Northern Cal TRACON
08:38PM 37.7333 -121.3333 252° West 393 452 11,700 -2,280 Descending Northern Cal TRACON
08:39PM 37.7000 -121.4500 250° West 344 396 10,400 -840 Descending Northern Cal TRACON
08:40PM 37.6833 -121.5500 258° West 263 303 10,100 -780 Descending Northern Cal TRACON
08:41PM 37.6667 -121.6333 256° West 251 289 8,900 -1,260 Descending Northern Cal TRACON
08:42PM 37.6333 -121.7167 243° Southwest 249 287 7,600 -1,140 Descending Northern Cal TRACON
08:43PM 37.6000 -121.7833 238° Southwest 234 269 6,700 -960 Descending Northern Cal TRACON
08:44PM 37.5833 -121.8500 253° West 214 246 5,700 -960 Descending Northern Cal TRACON
08:45PM 37.5500 -121.9167 238° Southwest 205 236 4,800 -840 Descending Northern Cal TRACON
08:46PM 37.5667 -121.9833 288° West 199 229 4,100 -660 Descending Northern Cal TRACON
08:47PM 37.5833 -122.0500 288° West 176 203 3,500 -600 Descending Northern Cal TRACON